createdAt,value
2022-12-12T00:00:43.213Z,99284.50
2022-12-12T00:03:10.683Z,99306.41
2022-12-12T00:05:37.991Z,99312.53
2022-12-12T00:08:05.171Z,99307.41
2022-12-12T00:10:32.390Z,99298.09
2022-12-12T00:12:59.228Z,99302.38
2022-12-12T00:15:27.423Z,99314.72
2022-12-12T00:17:54.645Z,99312.19
2022-12-12T00:20:21.473Z,99314.94
2022-12-12T00:22:48.556Z,99323.47
2022-12-12T00:25:15.670Z,99333.84
2022-12-12T00:27:42.665Z,99336.81
2022-12-12T00:30:09.965Z,99343.00
2022-12-12T00:32:37.031Z,99347.09
2022-12-12T00:35:04.240Z,99352.16
2022-12-12T00:37:31.207Z,99338.13
2022-12-12T00:39:58.209Z,99337.13
2022-12-12T00:42:27.365Z,99339.84
2022-12-12T00:44:54.496Z,99350.06
2022-12-12T00:47:21.435Z,99350.09
2022-12-12T00:49:48.400Z,99346.69
2022-12-12T00:52:15.323Z,99350.34
2022-12-12T00:54:42.173Z,99357.41
2022-12-12T00:57:09.129Z,99366.03
2022-12-12T00:59:36.082Z,99371.19
2022-12-12T01:02:03.139Z,99371.22
2022-12-12T01:04:30.149Z,99373.06
2022-12-12T01:06:57.133Z,99355.94
2022-12-12T01:09:23.968Z,99374.19
2022-12-12T01:11:50.864Z,99383.72
2022-12-12T01:14:17.798Z,99397.56
2022-12-12T01:16:44.693Z,99405.50
2022-12-12T01:19:11.616Z,99408.81
2022-12-12T01:21:38.674Z,99418.38
2022-12-12T01:24:05.928Z,99414.97
2022-12-12T01:26:32.846Z,99408.16
2022-12-12T01:28:59.683Z,99411.53
2022-12-12T01:31:26.610Z,99405.03
2022-12-12T01:33:53.534Z,99407.28
2022-12-12T01:36:23.254Z,99405.53
2022-12-12T01:38:52.436Z,99411.63
2022-12-12T01:41:19.891Z,99412.41
2022-12-12T01:43:47.387Z,99426.44
2022-12-12T01:46:23.335Z,99432.53
2022-12-12T01:48:59.027Z,99436.91
2022-12-12T01:51:27.573Z,99435.16
2022-12-12T01:54:04.827Z,99444.78
2022-12-12T01:56:32.742Z,99449.09
2022-12-12T01:59:00.769Z,99461.19
2022-12-12T02:01:28.027Z,99449.81
2022-12-12T02:03:55.570Z,99456.91
2022-12-12T02:06:26.723Z,99451.75
2022-12-12T02:08:56.921Z,99447.31
2022-12-12T02:11:24.289Z,99447.38
2022-12-12T02:13:51.972Z,99453.41
2022-12-12T02:16:37.447Z,99459.53
2022-12-12T02:19:38.206Z,99476.75
2022-12-12T02:22:26.231Z,99468.09
2022-12-12T02:25:08.182Z,99473.31
2022-12-12T02:27:47.243Z,99479.53
2022-12-12T02:30:22.603Z,99479.53
2022-12-12T02:33:06.949Z,99479.56
2022-12-12T02:35:58.281Z,99484.00
2022-12-12T02:38:29.836Z,99494.38
2022-12-12T02:41:14.107Z,99483.06
2022-12-12T02:44:08.848Z,99478.75
2022-12-12T02:46:48.644Z,99480.53
2022-12-12T02:49:15.526Z,99476.16
2022-12-12T02:51:44.507Z,99470.94
2022-12-12T02:54:17.398Z,99471.00
2022-12-12T02:56:50.056Z,99472.66
2022-12-12T02:59:25.644Z,99474.22
2022-12-12T03:02:07.539Z,99478.59
2022-12-12T03:05:16.095Z,99480.13
2022-12-12T03:08:00.205Z,99484.66
2022-12-12T03:10:42.287Z,99494.34
2022-12-12T03:13:32.408Z,99507.38
2022-12-12T03:16:25.648Z,99503.19
2022-12-12T03:18:58.384Z,99508.44
2022-12-12T03:21:46.487Z,99514.59
2022-12-12T03:24:44.896Z,99511.13
2022-12-12T03:27:35.800Z,99524.25
2022-12-12T03:30:05.566Z,99517.28
2022-12-12T03:32:42.610Z,99518.19
2022-12-12T03:35:19.560Z,99518.16
2022-12-12T03:37:54.847Z,99530.34
2022-12-12T03:40:39.606Z,99530.31
2022-12-12T03:43:20.076Z,99531.16
2022-12-12T03:45:53.030Z,99528.59
2022-12-12T03:48:30.876Z,99520.78
2022-12-12T03:51:20.146Z,99514.63
2022-12-12T03:53:52.164Z,99528.66
2022-12-12T03:56:27.214Z,99545.16
2022-12-12T03:59:11.659Z,99546.03
2022-12-12T04:01:46.871Z,99556.47
2022-12-12T04:04:31.931Z,99570.38
2022-12-12T04:07:07.108Z,99582.56
2022-12-12T04:09:53.070Z,99573.88
2022-12-12T04:12:44.382Z,99586.06
2022-12-12T04:15:23.437Z,99590.38
2022-12-12T04:18:27.810Z,99579.97
2022-12-12T04:21:22.210Z,99571.25
2022-12-12T04:23:56.495Z,99574.75
2022-12-12T04:26:44.181Z,99579.94
2022-12-12T04:29:36.492Z,99576.47
2022-12-12T04:32:19.124Z,99579.97
2022-12-12T04:34:50.483Z,99581.69
2022-12-12T04:37:22.875Z,99575.56
2022-12-12T04:39:53.985Z,99582.56
2022-12-12T04:42:24.374Z,99578.22
2022-12-12T04:44:55.237Z,99577.34
2022-12-12T04:47:24.021Z,99573.00
2022-12-12T04:49:53.834Z,99566.03
2022-12-12T04:52:22.587Z,99562.59
2022-12-12T04:55:03.991Z,99579.09
2022-12-12T04:57:40.002Z,99592.13
2022-12-12T05:00:13.311Z,99626.03
2022-12-12T05:02:50.664Z,99635.59
2022-12-12T05:05:23.426Z,99650.34
2022-12-12T05:07:58.227Z,99646.88
2022-12-12T05:10:25.388Z,99654.75
2022-12-12T05:12:58.260Z,99651.25
2022-12-12T05:15:25.902Z,99650.38
2022-12-12T05:18:00.764Z,99663.41
2022-12-12T05:20:27.652Z,99660.78
2022-12-12T05:22:54.484Z,99668.66
2022-12-12T05:25:21.397Z,99670.38
2022-12-12T05:27:48.323Z,99662.53
2022-12-12T05:30:15.365Z,99664.25
2022-12-12T05:32:42.258Z,99660.78
2022-12-12T05:35:10.183Z,99655.56
2022-12-12T05:37:37.323Z,99651.22
2022-12-12T05:40:05.994Z,99660.75
2022-12-12T05:42:32.946Z,99671.19
2022-12-12T05:44:59.887Z,99683.38
2022-12-12T05:47:27.156Z,99685.13
2022-12-12T05:49:54.343Z,99688.63
2022-12-12T05:52:21.222Z,99678.22
2022-12-12T05:54:48.183Z,99679.97
2022-12-12T05:57:15.119Z,99677.31
2022-12-12T05:59:41.964Z,99676.38
2022-12-12T06:02:08.917Z,99675.56
2022-12-12T06:04:35.815Z,99674.72
2022-12-12T06:07:02.791Z,99667.78
2022-12-12T06:09:29.640Z,99675.63
2022-12-12T06:11:56.577Z,99679.06
2022-12-12T06:14:23.619Z,99682.56
2022-12-12T06:16:50.448Z,99679.97
2022-12-12T06:19:18.929Z,99699.09
2022-12-12T06:21:45.826Z,99717.38
2022-12-12T06:24:13.475Z,99726.03
2022-12-12T06:26:40.405Z,99729.53
2022-12-12T06:29:07.282Z,99728.50
2022-12-12T06:31:34.211Z,99733.03
2022-12-12T06:34:01.118Z,99735.19
2022-12-12T06:36:28.286Z,99734.69
2022-12-12T06:38:58.166Z,99743.81
2022-12-12T06:41:27.197Z,99750.59
2022-12-12T06:43:54.626Z,99751.81
2022-12-12T06:46:24.214Z,99757.00
2022-12-12T06:48:51.575Z,99758.63
2022-12-12T06:51:26.102Z,99766.94
2022-12-12T06:53:53.233Z,99763.00
2022-12-12T06:56:23.167Z,99762.88
2022-12-12T06:58:51.402Z,99766.97
2022-12-12T07:01:20.435Z,99774.06
2022-12-12T07:03:49.559Z,99770.00
2022-12-12T07:06:18.778Z,99767.22
2022-12-12T07:08:46.274Z,99768.34
2022-12-12T07:11:24.414Z,99780.63
2022-12-12T07:13:52.270Z,99777.00
2022-12-12T07:16:19.503Z,99773.47
2022-12-12T07:18:47.445Z,99785.97
2022-12-12T07:21:17.560Z,99793.31
2022-12-12T07:23:44.636Z,99794.81
2022-12-12T07:26:17.517Z,99794.78
2022-12-12T07:28:44.693Z,99787.19
2022-12-12T07:31:14.177Z,99778.22
2022-12-12T07:33:44.494Z,99792.72
2022-12-12T07:36:16.151Z,99789.22
2022-12-12T07:38:43.871Z,99796.72
2022-12-12T07:41:13.708Z,99781.75
2022-12-12T07:43:44.312Z,99777.97
2022-12-12T07:46:14.674Z,99776.69
2022-12-12T07:48:41.741Z,99783.28
2022-12-12T07:51:08.616Z,99775.00
2022-12-12T07:53:35.490Z,99785.91
2022-12-12T07:56:06.565Z,99789.19
2022-12-12T07:58:34.332Z,99785.22
2022-12-12T08:01:01.246Z,99788.59
2022-12-12T08:03:28.154Z,99786.19
2022-12-12T08:05:55.167Z,99791.56
2022-12-12T08:08:22.084Z,99786.91
2022-12-12T08:10:49.037Z,99801.91
2022-12-12T08:13:15.885Z,99796.78
2022-12-12T08:15:43.352Z,99804.03
2022-12-12T08:18:10.313Z,99804.22
2022-12-12T08:20:40.260Z,99821.81
2022-12-12T08:23:08.025Z,99815.50
2022-12-12T08:25:36.189Z,99825.81
2022-12-12T08:28:03.328Z,99824.38
2022-12-12T08:30:30.238Z,99823.66
2022-12-12T08:32:57.158Z,99830.44
2022-12-12T08:35:24.107Z,99823.88
2022-12-12T08:37:50.924Z,99831.56
2022-12-12T08:40:17.861Z,99830.78
2022-12-12T08:42:44.837Z,99828.13
2022-12-12T08:45:12.175Z,99822.19
2022-12-12T08:47:39.222Z,99821.47
2022-12-12T08:50:06.876Z,99829.31
2022-12-12T08:52:33.743Z,99827.91
2022-12-12T08:55:01.147Z,99835.50
2022-12-12T08:57:28.115Z,99830.66
2022-12-12T08:59:55.013Z,99828.84
2022-12-12T09:02:22.126Z,99827.19
2022-12-12T09:04:49.055Z,99822.34
2022-12-12T09:07:15.909Z,99836.13
2022-12-12T09:09:42.746Z,99843.63
2022-12-12T09:12:09.593Z,99840.88
2022-12-12T09:14:36.778Z,99834.53
2022-12-12T09:17:03.694Z,99823.75
2022-12-12T09:19:30.589Z,99830.59
2022-12-12T09:21:57.426Z,99834.34
2022-12-12T09:24:25.608Z,99836.38
2022-12-12T09:26:52.508Z,99839.72
2022-12-12T09:29:19.474Z,99832.88
2022-12-12T09:31:46.551Z,99831.94
2022-12-12T09:34:13.865Z,99837.91
2022-12-12T09:36:40.868Z,99836.53
2022-12-12T09:39:07.766Z,99833.31
2022-12-12T09:41:34.664Z,99837.81
2022-12-12T09:44:09.897Z,99839.97
2022-12-12T09:46:42.675Z,99843.72
2022-12-12T09:49:49.133Z,99844.59
2022-12-12T09:52:33.381Z,99847.47
2022-12-12T09:55:02.891Z,99847.03
2022-12-12T09:58:16.023Z,99847.56
2022-12-12T10:00:48.669Z,99854.63
2022-12-12T10:03:33.251Z,99853.41
2022-12-12T10:09:27.567Z,99849.31
2022-12-12T10:11:56.037Z,99847.63
2022-12-12T10:14:43.447Z,99851.97
2022-12-12T10:17:20.703Z,99849.09
2022-12-12T10:19:51.120Z,99843.84
2022-12-12T10:22:34.488Z,99845.31
2022-12-12T10:25:04.387Z,99849.19
2022-12-12T10:27:31.379Z,99841.13
2022-12-12T10:30:04.858Z,99830.41
2022-12-12T10:32:40.160Z,99836.41
2022-12-12T10:35:18.896Z,99826.72
2022-12-12T10:38:24.379Z,99829.91
2022-12-12T10:41:06.371Z,99829.81
2022-12-12T10:43:48.236Z,99831.50
2022-12-12T10:46:18.953Z,99839.38
2022-12-12T10:48:48.771Z,99834.13
2022-12-12T10:51:19.758Z,99834.75
2022-12-12T10:53:47.367Z,99836.78
2022-12-12T10:56:26.888Z,99839.13
2022-12-12T10:58:59.806Z,99831.13
2022-12-12T11:02:08.452Z,99833.19
2022-12-12T11:04:23.893Z,99834.88
2022-12-12T11:06:52.896Z,99819.63
2022-12-12T11:09:25.836Z,99824.94
2022-12-12T11:12:10.859Z,99816.81
2022-12-12T11:14:45.023Z,99815.34
2022-12-12T11:17:32.513Z,99814.53
2022-12-12T11:20:01.631Z,99818.41
2022-12-12T11:22:32.385Z,99821.56
2022-12-12T11:25:00.542Z,99829.19
2022-12-12T11:27:41.575Z,99831.13
2022-12-12T11:30:41.978Z,99832.13
2022-12-12T11:33:19.867Z,99827.84
2022-12-12T11:35:53.990Z,99834.66
2022-12-12T11:38:26.754Z,99837.38
2022-12-12T11:41:03.211Z,99834.50
2022-12-12T11:43:32.229Z,99841.63
2022-12-12T11:46:04.459Z,99838.09
2022-12-12T11:48:35.263Z,99843.91
2022-12-12T11:51:02.987Z,99847.09
2022-12-12T11:53:30.235Z,99848.47
2022-12-12T11:55:57.087Z,99856.28
2022-12-12T11:58:37.082Z,99851.28
2022-12-12T12:01:12.732Z,99852.53
2022-12-12T12:03:52.302Z,99852.41
2022-12-12T12:06:49.961Z,99851.44
2022-12-12T12:09:45.485Z,99864.69
2022-12-12T12:12:28.526Z,99858.63
2022-12-12T12:15:07.326Z,99868.56
2022-12-12T12:17:46.474Z,99868.97
2022-12-12T12:20:44.398Z,99869.78
2022-12-12T12:23:35.119Z,99864.00
2022-12-12T12:26:31.389Z,99862.94
2022-12-12T12:29:16.978Z,99862.25
2022-12-12T12:31:59.010Z,99860.66
2022-12-12T12:34:57.809Z,99866.25
2022-12-12T12:37:40.073Z,99873.50
2022-12-12T12:40:57.581Z,99879.31
2022-12-12T12:44:01.409Z,99883.00
2022-12-12T12:46:38.510Z,99883.53
2022-12-12T12:49:30.705Z,99880.88
2022-12-12T12:52:09.478Z,99880.38
2022-12-12T12:54:45.763Z,99884.19
2022-12-12T12:57:22.061Z,99884.84
2022-12-12T12:59:53.614Z,99883.91
2022-12-12T13:02:30.560Z,99879.03
2022-12-12T13:05:08.312Z,99870.28
2022-12-12T13:07:47.317Z,99874.16
2022-12-12T13:10:23.630Z,99868.81
2022-12-12T13:12:55.044Z,99863.63
2022-12-12T13:15:28.408Z,99875.69
2022-12-12T13:18:10.681Z,99870.19
2022-12-12T13:20:45.869Z,99860.50
2022-12-12T13:23:17.857Z,99866.63
2022-12-12T13:26:12.503Z,99882.75
2022-12-12T13:28:51.703Z,99872.31
2022-12-12T13:31:34.193Z,99882.13
2022-12-12T13:34:09.085Z,99874.22
2022-12-12T13:36:40.453Z,99879.00
2022-12-12T13:39:22.339Z,99889.84
2022-12-12T13:42:02.202Z,99884.34
2022-12-12T13:44:33.100Z,99888.94
2022-12-12T13:47:00.067Z,99883.16
2022-12-12T13:49:32.461Z,99882.19
2022-12-12T13:52:30.908Z,99888.91
2022-12-12T13:55:20.365Z,99885.63
2022-12-12T13:57:57.186Z,99887.22
2022-12-12T14:00:25.545Z,99894.56
2022-12-12T14:03:01.923Z,99893.75
2022-12-12T14:05:33.401Z,99894.78
2022-12-12T14:08:22.681Z,99915.22
2022-12-12T14:10:49.616Z,99904.69
2022-12-12T14:13:22.316Z,99907.69
2022-12-12T14:15:58.426Z,99903.72
2022-12-12T14:18:41.624Z,99899.34
2022-12-12T14:21:14.429Z,99901.97
2022-12-12T14:23:45.541Z,99905.06
2022-12-12T14:26:27.442Z,99913.31
2022-12-12T14:29:18.948Z,99915.97
2022-12-12T14:32:13.879Z,99918.34
2022-12-12T14:35:04.660Z,99922.16
2022-12-12T14:37:54.879Z,99916.25
2022-12-12T14:40:25.550Z,99915.88
2022-12-12T14:43:23.263Z,99915.28
2022-12-12T14:45:50.233Z,99923.03
2022-12-12T14:48:20.240Z,99922.81
2022-12-12T14:50:52.806Z,99919.19
2022-12-12T14:53:25.816Z,99923.19
2022-12-12T14:55:57.430Z,99930.22
2022-12-12T14:58:28.147Z,99917.00
2022-12-12T15:00:58.942Z,99918.63
2022-12-12T15:03:47.426Z,99916.28
2022-12-12T15:06:40.511Z,99915.09
2022-12-12T15:09:15.391Z,99923.13
2022-12-12T15:11:43.046Z,99921.47
2022-12-12T15:14:25.845Z,99925.97
2022-12-12T15:17:00.465Z,99915.69
2022-12-12T15:19:34.484Z,99910.09
2022-12-12T15:22:01.861Z,99914.84
2022-12-12T15:24:37.483Z,99911.31
2022-12-12T15:27:05.978Z,99914.69
2022-12-12T15:29:35.434Z,99915.50
2022-12-12T15:32:16.068Z,99909.75
2022-12-12T15:34:47.358Z,99910.28
2022-12-12T15:37:24.758Z,99911.13
2022-12-12T15:40:12.888Z,99902.59
2022-12-12T15:42:50.399Z,99906.91
2022-12-12T15:45:25.911Z,99904.91
2022-12-12T15:47:55.377Z,99897.59
2022-12-12T15:50:27.369Z,99907.63
2022-12-12T15:53:00.597Z,99911.50
2022-12-12T15:55:28.025Z,99908.31
2022-12-12T15:57:55.009Z,99906.63
2022-12-12T16:00:42.243Z,99897.34
2022-12-12T16:03:09.148Z,99899.06
2022-12-12T16:05:38.320Z,99911.75
2022-12-12T16:08:31.485Z,99910.88
2022-12-12T16:11:02.814Z,99909.88
2022-12-12T16:13:44.457Z,99914.03
2022-12-12T16:16:42.758Z,99911.44
2022-12-12T16:19:28.403Z,99922.22
2022-12-12T16:21:55.681Z,99923.22
2022-12-12T16:24:25.568Z,99923.75
2022-12-12T16:26:57.465Z,99927.38
2022-12-12T16:29:24.455Z,99923.22
2022-12-12T16:31:51.626Z,99932.78
2022-12-12T16:34:18.989Z,99949.69
2022-12-12T16:36:46.625Z,99944.41
2022-12-12T16:39:13.981Z,99935.22
2022-12-12T16:41:41.194Z,99931.81
2022-12-12T16:44:08.159Z,99939.88
2022-12-12T16:46:35.020Z,99937.88
2022-12-12T16:49:04.843Z,99939.47
2022-12-12T16:51:34.512Z,99938.63
2022-12-12T16:54:01.915Z,99930.69
2022-12-12T16:56:28.868Z,99935.03
2022-12-12T16:58:56.329Z,99930.69
2022-12-12T17:01:23.666Z,99936.00
2022-12-12T17:03:50.967Z,99935.13
2022-12-12T17:06:17.917Z,99936.94
2022-12-12T17:08:44.827Z,99933.38
2022-12-12T17:11:12.623Z,99938.44
2022-12-12T17:13:46.359Z,99937.81
2022-12-12T17:16:13.913Z,99938.06
2022-12-12T17:18:40.828Z,99941.44
2022-12-12T17:21:07.686Z,99943.78
2022-12-12T17:23:34.833Z,99948.06
2022-12-12T17:26:04.801Z,99946.41
2022-12-12T17:28:34.329Z,99948.34
2022-12-12T17:31:02.065Z,99945.50
2022-12-12T17:33:29.274Z,99941.97
2022-12-12T17:36:04.558Z,99941.09
2022-12-12T17:38:31.917Z,99934.06
2022-12-12T17:41:03.696Z,99928.69
2022-12-12T17:43:30.633Z,99931.16
2022-12-12T17:46:02.930Z,99932.09
2022-12-12T17:48:32.864Z,99939.25
2022-12-12T17:51:02.032Z,99946.94
2022-12-12T17:53:36.635Z,99946.91
2022-12-12T17:56:07.724Z,99958.25
2022-12-12T17:58:37.844Z,99958.31
2022-12-12T18:01:17.687Z,99965.00
2022-12-12T18:03:44.802Z,99950.50
2022-12-12T18:06:14.385Z,99952.97
2022-12-12T18:08:41.771Z,99958.47
2022-12-12T18:11:10.892Z,99961.06
2022-12-12T18:13:41.593Z,99957.50
2022-12-12T18:16:11.147Z,99951.94
2022-12-12T18:18:38.387Z,99952.16
2022-12-12T18:21:12.707Z,99946.22
2022-12-12T18:23:40.023Z,99942.44
2022-12-12T18:26:09.946Z,99931.06
2022-12-12T18:28:37.410Z,99946.28
2022-12-12T18:31:05.221Z,99951.06
2022-12-12T18:33:32.619Z,99950.34
2022-12-12T18:36:07.757Z,99954.84
2022-12-12T18:38:36.273Z,99950.16
2022-12-12T18:41:04.110Z,99950.78
2022-12-12T18:43:32.168Z,99948.13
2022-12-12T18:46:05.206Z,99941.50
2022-12-12T18:48:33.426Z,99931.81
2022-12-12T18:51:11.199Z,99933.66
2022-12-12T18:53:39.084Z,99917.81
2022-12-12T18:56:20.018Z,99917.53
2022-12-12T18:58:47.113Z,99918.03
2022-12-12T19:01:21.708Z,99923.34
2022-12-12T19:03:51.082Z,99933.72
2022-12-12T19:06:23.430Z,99930.53
2022-12-12T19:08:50.929Z,99922.59
2022-12-12T19:11:17.903Z,99924.72
2022-12-12T19:13:46.492Z,99924.38
2022-12-12T19:16:16.371Z,99923.19
2022-12-12T19:18:44.041Z,99932.75
2022-12-12T19:21:20.440Z,99935.06
2022-12-12T19:23:47.903Z,99938.44
2022-12-12T19:26:18.426Z,99941.22
2022-12-12T19:28:47.273Z,99949.75
2022-12-12T19:31:16.651Z,99956.91
2022-12-12T19:33:44.897Z,99964.00
2022-12-12T19:36:15.133Z,99971.19
2022-12-12T19:38:42.746Z,99971.19
2022-12-12T19:41:11.303Z,99962.75
2022-12-12T19:43:38.395Z,99960.78
2022-12-12T19:46:07.585Z,99959.63
2022-12-12T19:48:36.414Z,99960.59
2022-12-12T19:51:07.261Z,99971.16
2022-12-12T19:53:37.788Z,99965.66
2022-12-12T19:56:05.184Z,99960.38
2022-12-12T19:58:35.202Z,99961.28
2022-12-12T20:01:07.359Z,99962.16
2022-12-12T20:03:34.482Z,99965.44
2022-12-12T20:06:07.862Z,99964.63
2022-12-12T20:08:36.711Z,99958.59
2022-12-12T20:11:12.302Z,99961.09
2022-12-12T20:13:39.349Z,99964.34
2022-12-12T20:16:17.420Z,99962.72
2022-12-12T20:18:44.713Z,99969.34
2022-12-12T20:21:24.626Z,99969.72
2022-12-12T20:23:58.614Z,99968.97
2022-12-12T20:26:28.964Z,99975.03
2022-12-12T20:28:59.560Z,99964.63
2022-12-12T20:31:33.485Z,99977.78
2022-12-12T20:34:00.814Z,99971.66
2022-12-12T20:36:31.770Z,99976.00
2022-12-12T20:39:00.855Z,99989.09
2022-12-12T20:41:31.283Z,99992.59
2022-12-12T20:43:59.506Z,99988.16
2022-12-12T20:46:32.260Z,99982.84
2022-12-12T20:49:01.899Z,99974.22
2022-12-12T20:54:21.662Z,99972.44
2022-12-12T20:56:49.507Z,99971.59
2022-12-12T20:59:16.481Z,99972.56
2022-12-12T21:01:43.805Z,99976.06
2022-12-12T21:04:10.773Z,99978.69
2022-12-12T21:06:41.542Z,99996.97
2022-12-12T21:09:10.452Z,100006.56
2022-12-12T21:11:38.912Z,100007.44
2022-12-12T21:14:09.598Z,100015.28
2022-12-12T21:16:39.070Z,100002.19
2022-12-12T21:19:12.172Z,100001.31
2022-12-12T21:21:40.879Z,100001.28
2022-12-12T21:24:08.128Z,99986.41
2022-12-12T21:26:35.323Z,100003.78
2022-12-12T21:29:03.072Z,100009.81
2022-12-12T21:31:32.950Z,100006.31
2022-12-12T21:34:00.652Z,100005.41
2022-12-12T21:36:28.911Z,100000.13
2022-12-12T21:38:57.585Z,99993.19
2022-12-12T21:41:25.399Z,99995.78
2022-12-12T21:43:52.786Z,100001.78
2022-12-12T21:46:22.632Z,99979.16
2022-12-12T21:49:28.747Z,99984.25
2022-12-12T21:51:58.406Z,99986.84
2022-12-12T21:54:25.780Z,99986.84
2022-12-12T21:56:53.210Z,99995.34
2022-12-12T21:59:20.166Z,99996.16
2022-12-12T22:01:47.119Z,100003.00
2022-12-12T22:04:14.680Z,100017.00
2022-12-12T22:06:45.173Z,100015.22
2022-12-12T22:09:12.747Z,100017.81
2022-12-12T22:11:49.371Z,100028.31
2022-12-12T22:14:21.769Z,100029.34
2022-12-12T22:16:49.092Z,100027.56
2022-12-12T22:19:16.639Z,100002.34
2022-12-12T22:21:46.474Z,100002.34
2022-12-12T22:24:13.749Z,99993.81
2022-12-12T22:26:44.028Z,99991.91
2022-12-12T22:29:13.998Z,99997.88
2022-12-12T22:31:42.137Z,100010.78
2022-12-12T22:34:15.890Z,100008.84
2022-12-12T22:36:44.121Z,100016.94
2022-12-12T22:39:20.375Z,100021.84
2022-12-12T22:41:47.632Z,100020.97
2022-12-12T22:44:17.138Z,100030.63
2022-12-12T22:46:48.858Z,100031.28
2022-12-12T22:49:19.413Z,100039.69
2022-12-12T22:51:47.346Z,100039.03
2022-12-12T22:54:14.897Z,100024.69
2022-12-12T22:56:42.478Z,100052.91
2022-12-12T22:59:12.017Z,100039.97
2022-12-12T23:01:40.038Z,100033.03
2022-12-12T23:04:07.484Z,100053.25
2022-12-12T23:06:36.191Z,100058.09
2022-12-12T23:09:14.395Z,100062.44
2022-12-12T23:11:41.760Z,100064.13
2022-12-12T23:14:14.361Z,100071.16
2022-12-12T23:16:41.884Z,100063.88
2022-12-12T23:19:10.174Z,100072.50
2022-12-12T23:21:37.858Z,100067.53
2022-12-12T23:24:06.203Z,100061.31
2022-12-12T23:26:35.736Z,100066.78
2022-12-12T23:29:04.314Z,100069.44
2022-12-12T23:31:33.860Z,100084.09
2022-12-12T23:34:03.302Z,100086.88
2022-12-12T23:36:31.158Z,100090.44
2022-12-12T23:39:00.884Z,100090.09
2022-12-12T23:41:28.354Z,100107.38
2022-12-12T23:43:56.125Z,100099.34
2022-12-12T23:46:32.261Z,100104.09
2022-12-12T23:49:08.566Z,100101.72
2022-12-12T23:51:38.680Z,100090.50
2022-12-12T23:54:10.962Z,100106.53
2022-12-12T23:56:38.590Z,100120.34
2022-12-12T23:59:06.362Z,100118.03
